Time;durP1;ratioP1;P1;durP2;ratioP2;P2;SDS_P1;SDS_P2;PMS_P1;PMS_P2;Temp;Humidity;BMP_temperature;BMP_pressure;BME280_temperature;BME280_humidity;BME280_pressure;Samples;Min_cycle;Max_cycle;Signal;HPM_P1;HPM_P2
2023/10/10 00:02:18;;;;;;;8.97;4.10;;;19.50;45.90;;;;;;20763;6748;117121;-73
2023/10/10 00:04:55;;;;;;;14.37;4.63;;;19.00;46.10;;;;;;20708;6764;117136;-73
2023/10/10 00:07:35;;;;;;;13.17;5.27;;;19.00;46.00;;;;;;20536;6748;281179;-73
2023/10/10 00:10:12;;;;;;;10.10;4.83;;;19.10;47.00;;;;;;20701;6749;117454;-73
2023/10/10 00:12:42;;;;;;;14.63;4.93;;;18.90;46.60;;;;;;20764;6749;117422;-73
2023/10/10 00:15:22;;;;;;;13.10;5.73;;;18.80;47.60;;;;;;20528;6749;284389;-73
2023/10/10 00:18:02;;;;;;;18.37;5.57;;;18.80;47.50;;;;;;20763;6749;117336;-73
2023/10/10 00:20:41;;;;;;;10.47;5.23;;;18.80;47.10;;;;;;20446;6749;299835;-73
2023/10/10 00:23:10;;;;;;;12.18;5.60;;;19.00;47.90;;;;;;20523;6749;314692;-73
2023/10/10 00:25:44;;;;;;;10.87;4.87;;;19.00;47.20;;;;;;20762;6749;117898;-72
2023/10/10 00:28:18;;;;;;;8.33;4.60;;;18.80;46.90;;;;;;20752;6749;119454;-73
2023/10/10 00:30:53;;;;;;;10.20;5.20;;;18.50;47.20;;;;;;20436;6749;309184;-73
2023/10/10 00:33:31;;;;;;;9.77;4.87;;;18.50;47.80;;;;;;20743;6749;119143;-73
2023/10/10 00:36:10;;;;;;;10.17;5.20;;;18.50;48.00;;;;;;20554;6749;285479;-73
2023/10/10 00:38:42;;;;;;;12.00;5.28;;;18.50;48.00;;;;;;20547;6749;307036;-73
2023/10/10 00:41:16;;;;;;;11.23;5.50;;;18.70;47.60;;;;;;20381;6749;287495;-73
2023/10/10 00:43:52;;;;;;;9.50;5.12;;;18.90;47.30;;;;;;20548;6749;317783;-73
2023/10/10 00:46:28;;;;;;;12.90;5.37;;;19.00;46.90;;;;;;20550;6749;311441;-72
2023/10/10 00:49:07;;;;;;;13.20;4.77;;;18.80;46.70;;;;;;20743;6749;117586;-73
2023/10/10 00:51:40;;;;;;;8.17;4.37;;;18.80;46.70;;;;;;20592;6749;117915;-73
2023/10/10 00:54:26;;;;;;;16.00;5.93;;;18.40;47.20;;;;;;20547;6749;286309;-73
2023/10/10 00:56:54;;;;;;;11.67;5.40;;;18.40;48.00;;;;;;20541;6749;277102;-73
2023/10/10 00:59:35;;;;;;;11.27;5.40;;;18.50;47.60;;;;;;20698;6764;117318;-73
2023/10/10 01:02:14;;;;;;;14.10;4.63;;;18.40;47.50;;;;;;20725;6764;117214;-73
2023/10/10 01:04:57;;;;;;;10.73;5.57;;;18.20;48.30;;;;;;20509;6756;308139;-73
2023/10/10 01:07:26;;;;;;;12.07;5.12;;;18.10;48.20;;;;;;20477;6764;336509;-73
2023/10/10 01:10:11;;;;;;;12.40;4.70;;;18.20;48.10;;;;;;20665;6764;118225;-73
2023/10/10 01:12:46;;;;;;;13.83;4.73;;;18.20;48.10;;;;;;20750;6748;117283;-72
2023/10/10 01:15:26;;;;;;;13.80;6.10;;;17.80;48.30;;;;;;20524;6748;286410;-73
2023/10/10 01:18:01;;;;;;;13.70;4.63;;;17.90;49.30;;;;;;20716;6763;117287;-73
2023/10/10 01:20:44;;;;;;;10.75;5.65;;;17.80;49.00;;;;;;20406;6763;290500;-72
2023/10/10 01:23:14;;;;;;;12.13;5.57;;;17.80;49.40;;;;;;20524;6754;278517;-72
2023/10/10 01:25:48;;;;;;;11.95;5.80;;;18.10;49.20;;;;;;20545;6749;300679;-73
2023/10/10 01:28:27;;;;;;;12.83;6.00;;;18.30;48.80;;;;;;20548;6749;306535;-74
2023/10/10 01:30:59;;;;;;;10.73;5.03;;;18.40;48.50;;;;;;20618;6749;118227;-74
2023/10/10 01:33:47;;;;;;;11.52;5.68;;;18.10;48.40;;;;;;20546;6749;277784;-73
2023/10/10 01:36:18;;;;;;;17.40;5.27;;;18.00;48.90;;;;;;20736;6806;117668;-72
2023/10/10 01:39:08;;;;;;;14.03;5.70;;;17.80;48.80;;;;;;20537;6749;307671;-73
2023/10/10 01:41:40;;;;;;;19.33;4.97;;;17.90;49.40;;;;;;20575;6749;118271;-73
2023/10/10 01:44:23;;;;;;;12.52;5.65;;;17.70;49.90;;;;;;20549;6749;277977;-73
2023/10/10 01:46:55;;;;;;;13.27;5.40;;;17.70;49.50;;;;;;20535;6749;306552;-73
2023/10/10 01:49:31;;;;;;;15.97;5.30;;;17.90;49.20;;;;;;20731;6749;117837;-73
2023/10/10 01:52:12;;;;;;;15.37;6.17;;;17.70;49.00;;;;;;20540;6749;278120;-73
2023/10/10 01:54:45;;;;;;;16.93;5.60;;;17.80;49.50;;;;;;20534;6749;281665;-74
2023/10/10 01:57:21;;;;;;;14.98;6.30;;;17.90;49.10;;;;;;20481;6764;467701;-72
2023/10/10 01:59:58;;;;;;;13.10;6.07;;;17.80;49.40;;;;;;20703;6749;118090;-73
2023/10/10 02:02:34;;;;;;;8.60;4.67;;;17.80;48.80;;;;;;20767;6749;122297;-73
2023/10/10 02:05:11;;;;;;;11.83;5.50;;;17.40;49.20;;;;;;20531;6749;291577;-72
2023/10/10 02:07:50;;;;;;;12.77;5.72;;;17.60;49.40;;;;;;20546;6749;335987;-73
2023/10/10 02:10:23;;;;;;;10.97;5.57;;;17.70;49.50;;;;;;20462;6749;304062;-73
2023/10/10 02:12:59;;;;;;;10.67;4.50;;;17.50;49.10;;;;;;20770;6749;118569;-72
2023/10/10 02:15:35;;;;;;;11.87;5.77;;;17.50;49.10;;;;;;20537;6749;307669;-73
2023/10/10 02:18:12;;;;;;;9.90;4.60;;;17.20;49.60;;;;;;20767;6749;118406;-73
2023/10/10 02:20:51;;;;;;;14.20;6.17;;;17.20;49.60;;;;;;20439;6749;318228;-73
2023/10/10 02:32:09;;;;;;;10.33;5.50;;;16.80;50.80;;;;;;20328;6820;336787;-73
2023/10/10 02:34:51;;;;;;;8.77;4.87;;;17.10;50.60;;;;;;20767;6749;117240;-72
2023/10/10 06:36:49;;;;;;;12.07;5.75;;;17.90;47.70;;;;;;20812;6514;277353;-73
2023/10/10 06:41:46;;;;;;;8.23;5.20;;;18.10;47.70;;;;;;20673;6790;118030;-73
2023/10/10 06:44:15;;;;;;;11.87;5.20;;;17.90;47.90;;;;;;20649;6835;118069;-74
2023/10/10 06:46:46;;;;;;;8.98;5.12;;;17.60;48.30;;;;;;20439;6835;316382;-75
2023/10/10 06:49:11;;;;;;;12.33;6.10;;;17.60;48.50;;;;;;20408;6835;279107;-73
2023/10/10 06:51:39;;;;;;;9.18;5.50;;;17.80;48.30;;;;;;20647;6835;117404;-75
2023/10/10 06:54:03;;;;;;;11.47;4.93;;;17.70;48.40;;;;;;20647;6835;117708;-76
2023/10/10 06:56:45;;;;;;;14.73;6.17;;;17.50;48.60;;;;;;20432;6835;333425;-73
2023/10/10 06:59:20;;;;;;;7.33;4.67;;;17.50;48.50;;;;;;20647;6835;117705;-73
2023/10/10 07:01:40;;;;;;;8.60;5.27;;;17.50;48.60;;;;;;20426;6835;300376;-73
2023/10/10 07:04:11;;;;;;;12.57;6.00;;;17.60;48.70;;;;;;20402;6835;283772;-74
2023/10/10 07:06:33;;;;;;;11.32;5.00;;;17.80;48.40;;;;;;20606;6838;117981;-74
2023/10/10 07:09:14;;;;;;;8.85;4.95;;;17.80;48.40;;;;;;20582;6853;122109;-74
2023/10/10 07:11:31;;;;;;;10.17;4.93;;;17.60;48.80;;;;;;20559;6848;117929;-74
2023/10/10 07:13:59;;;;;;;11.30;5.53;;;17.50;49.10;;;;;;20406;6848;338122;-74
2023/10/10 07:16:22;;;;;;;11.57;5.83;;;17.70;49.00;;;;;;20384;6848;280457;-74
2023/10/10 07:18:56;;;;;;;13.53;5.07;;;18.00;48.50;;;;;;20604;6852;118076;-74
2023/10/10 07:21:30;;;;;;;12.80;6.13;;;18.00;48.30;;;;;;20376;6844;307340;-75
2023/10/10 07:24:13;;;;;;;12.33;5.77;;;18.20;48.10;;;;;;20597;6844;117319;-74
2023/10/10 07:26:40;;;;;;;11.30;6.03;;;18.20;48.10;;;;;;20314;6874;295840;-74
2023/10/10 07:28:56;;;;;;;10.13;5.50;;;18.40;47.90;;;;;;20594;6848;118586;-74
2023/10/10 07:31:22;;;;;;;13.02;5.97;;;18.40;48.00;;;;;;20360;6848;277835;-74
2023/10/10 07:34:15;;;;;;;13.00;6.45;;;18.60;47.80;;;;;;20425;6842;323061;-73
2023/10/10 07:36:31;;;;;;;12.37;6.47;;;18.90;46.80;;;;;;20410;6842;277771;-74
2023/10/10 07:39:32;;;;;;;11.80;6.27;;;19.20;46.30;;;;;;20427;6842;278584;-74
2023/10/10 07:41:21;;;;;;;12.47;6.27;;;19.60;45.40;;;;;;20315;6854;337996;-74
2023/10/10 07:43:49;;;;;;;11.07;5.73;;;19.60;45.40;;;;;;20596;6848;117912;-74
2023/10/10 07:46:17;;;;;;;12.33;5.80;;;19.60;45.80;;;;;;20404;6846;337255;-74
2023/10/10 07:48:39;;;;;;;10.87;5.27;;;19.70;45.60;;;;;;20606;6847;117379;-74
2023/10/10 07:51:07;;;;;;;10.73;5.03;;;19.80;45.70;;;;;;20604;6847;117366;-74
2023/10/10 07:53:34;;;;;;;10.77;4.70;;;19.70;46.00;;;;;;20604;6847;122343;-74
2023/10/10 07:56:00;;;;;;;12.43;5.23;;;19.60;46.30;;;;;;20544;6847;117779;-74
2023/10/10 07:58:27;;;;;;;11.87;5.83;;;19.60;46.60;;;;;;20403;6847;308181;-73
2023/10/10 08:01:08;;;;;;;11.97;5.40;;;19.90;45.90;;;;;;20409;6847;308195;-73
2023/10/10 08:03:31;;;;;;;12.93;5.50;;;20.40;45.20;;;;;;20403;6847;308181;-74
2023/10/10 08:05:54;;;;;;;19.35;6.50;;;20.80;44.40;;;;;;20614;6847;117288;-74
2023/10/10 08:08:20;;;;;;;32.43;8.20;;;20.90;44.50;;;;;;20415;6847;277369;-75
2023/10/10 08:10:52;;;;;;;9.90;5.50;;;21.00;44.20;;;;;;20413;6847;337162;-74
2023/10/10 08:13:18;;;;;;;10.47;5.20;;;21.20;44.50;;;;;;20626;6847;118449;-74
2023/10/10 08:15:56;;;;;;;14.53;5.63;;;21.10;44.30;;;;;;20380;6862;353228;-74
2023/10/10 08:23:29;;;;;;;10.90;5.00;;;20.60;45.20;;;;;;20517;6841;117544;-73
2023/10/10 08:25:56;;;;;;;19.40;6.40;;;20.40;45.10;;;;;;20419;6842;336712;-75
2023/10/10 08:28:21;;;;;;;23.10;7.00;;;20.60;45.90;;;;;;20567;6862;122355;-74
2023/10/10 08:30:48;;;;;;;13.73;5.68;;;20.80;44.80;;;;;;20422;6841;337566;-75
2023/10/10 08:33:13;;;;;;;13.90;5.13;;;20.70;44.70;;;;;;20582;6842;117348;-75
2023/10/10 08:35:39;;;;;;;16.60;5.23;;;20.80;44.70;;;;;;20625;6842;118534;-75
2023/10/10 08:38:07;;;;;;;11.70;5.60;;;20.70;44.90;;;;;;20415;6841;306542;-74
2023/10/10 08:40:36;;;;;;;10.17;5.60;;;21.00;44.70;;;;;;20440;6841;314522;-74
2023/10/10 08:43:02;;;;;;;9.93;5.50;;;21.50;44.50;;;;;;20645;6841;121108;-74
2023/10/10 08:45:39;;;;;;;12.17;5.83;;;21.70;43.20;;;;;;20411;6841;277510;-75
2023/10/10 08:48:03;;;;;;;13.73;5.72;;;22.10;42.50;;;;;;20404;6841;336619;-74
2023/10/10 08:50:32;;;;;;;14.18;6.25;;;22.10;42.50;;;;;;20429;6841;277768;-74
2023/10/10 08:52:54;;;;;;;14.53;6.23;;;22.50;41.40;;;;;;20416;6841;307776;-74
2023/10/10 08:55:26;;;;;;;13.50;4.97;;;22.80;41.70;;;;;;20620;6841;117535;-75
2023/10/10 08:57:51;;;;;;;9.23;4.77;;;22.80;41.80;;;;;;20639;6839;117329;-74
2023/10/10 09:00:17;;;;;;;9.63;5.10;;;22.70;42.10;;;;;;20631;6840;117503;-74
2023/10/10 09:02:41;;;;;;;12.70;4.40;;;22.60;42.40;;;;;;20638;6841;117015;-74
2023/10/10 09:05:07;;;;;;;13.07;5.78;;;22.70;41.50;;;;;;20430;6841;277948;-75
2023/10/10 09:07:34;;;;;;;14.50;4.80;;;22.70;42.10;;;;;;20631;6841;117336;-73
2023/10/10 09:10:04;;;;;;;13.40;5.60;;;22.80;41.50;;;;;;20430;6841;353446;-74
2023/10/10 09:12:34;;;;;;;16.27;5.30;;;23.00;40.50;;;;;;20642;6841;117571;-74
2023/10/10 09:14:59;;;;;;;15.70;4.67;;;23.00;40.70;;;;;;20629;6841;121978;-74
2023/10/10 09:17:28;;;;;;;16.13;5.10;;;22.90;41.30;;;;;;20571;6841;118772;-73
2023/10/10 09:19:51;;;;;;;11.63;5.65;;;22.90;41.20;;;;;;20406;6841;277982;-74
2023/10/10 09:22:44;;;;;;;17.20;5.60;;;23.10;40.90;;;;;;20434;6841;307181;-75
2023/10/10 09:25:23;;;;;;;11.93;5.28;;;23.50;39.80;;;;;;20408;6841;337672;-76
2023/10/10 09:28:00;;;;;;;15.53;5.83;;;23.80;40.40;;;;;;20407;6841;306290;-75
2023/10/10 09:30:31;;;;;;;16.30;6.20;;;24.20;39.00;;;;;;20415;6841;311478;-74
2023/10/10 09:33:00;;;;;;;13.55;5.37;;;24.40;40.00;;;;;;20406;6841;307199;-73
2023/10/10 09:35:20;;;;;;;12.65;5.65;;;24.30;39.50;;;;;;20386;6841;308496;-75
2023/10/10 09:37:44;;;;;;;12.20;5.70;;;24.50;38.70;;;;;;20645;6841;118470;-74
2023/10/10 09:40:15;;;;;;;7.30;4.30;;;24.10;39.50;;;;;;20649;6841;117246;-74
2023/10/10 09:43:49;;;;;;;14.35;5.65;;;24.10;39.60;;;;;;20420;6841;277637;-74
2023/10/10 09:45:18;;;;;;;14.10;5.20;;;24.10;40.00;;;;;;20223;6841;121289;-74
2023/10/10 09:47:43;;;;;;;20.97;5.60;;;24.10;40.00;;;;;;20644;6841;118644;-73
2023/10/10 09:52:50;;;;;;;17.17;5.30;;;24.00;40.60;;;;;;20643;6841;117320;-73
2023/10/10 09:58:00;;;;;;;15.33;5.20;;;24.20;40.30;;;;;;20438;6841;307161;-74
2023/10/10 10:00:45;;;;;;;14.90;4.93;;;24.40;40.20;;;;;;20647;6841;117437;-74
2023/10/10 10:02:56;;;;;;;12.85;5.37;;;24.40;40.30;;;;;;20385;6841;307240;-74
2023/10/10 10:05:20;;;;;;;13.57;5.67;;;24.50;40.00;;;;;;20417;6841;286059;-74
2023/10/10 10:07:56;;;;;;;15.57;5.35;;;24.90;39.70;;;;;;20429;6841;307164;-74
2023/10/10 10:10:20;;;;;;;15.03;4.70;;;24.90;39.70;;;;;;20622;6839;120943;-74
2023/10/10 10:12:59;;;;;;;10.57;5.47;;;24.90;39.70;;;;;;20406;6841;277674;-73
2023/10/10 10:15:39;;;;;;;11.63;5.43;;;25.00;38.80;;;;;;20385;6841;307280;-74
2023/10/10 10:18:12;;;;;;;15.33;5.60;;;25.20;39.10;;;;;;20628;6841;117120;-74
2023/10/10 10:20:33;;;;;;;13.07;5.17;;;25.10;39.30;;;;;;20611;6841;118299;-75
2023/10/10 10:22:53;;;;;;;13.67;5.30;;;24.90;39.70;;;;;;20404;6841;307537;-74
2023/10/10 10:25:22;;;;;;;11.57;4.50;;;25.00;39.40;;;;;;20629;6841;120909;-74
2023/10/10 10:27:49;;;;;;;18.57;5.50;;;25.00;39.30;;;;;;20427;6841;315445;-74
2023/10/10 10:32:46;;;;;;;18.27;4.97;;;25.10;39.20;;;;;;20628;6841;117994;-73
2023/10/10 10:35:15;;;;;;;13.80;5.05;;;25.10;39.50;;;;;;20409;6841;307199;-73
2023/10/10 10:37:44;;;;;;;12.93;5.28;;;25.20;39.30;;;;;;20403;6841;336744;-74
2023/10/10 10:42:50;;;;;;;14.37;5.40;;;25.60;39.10;;;;;;20448;6841;277662;-75
2023/10/10 10:45:34;;;;;;;16.87;5.73;;;25.60;39.00;;;;;;20416;6841;307476;-74
2023/10/10 10:47:59;;;;;;;13.70;5.30;;;25.80;38.90;;;;;;20658;6841;121670;-72
2023/10/10 10:50:28;;;;;;;12.03;4.90;;;25.80;38.80;;;;;;20634;6840;120605;-72
2023/10/10 10:53:08;;;;;;;10.63;5.10;;;25.60;38.80;;;;;;20428;6840;308426;-75
2023/10/10 10:55:31;;;;;;;14.43;5.68;;;25.60;38.70;;;;;;20329;6866;306344;-73
2023/10/10 10:58:06;;;;;;;9.60;4.70;;;25.90;38.50;;;;;;20570;6866;117869;-74
2023/10/10 11:01:00;;;;;;;15.07;5.00;;;25.90;38.60;;;;;;20613;6853;117133;-74
2023/10/10 11:03:11;;;;;;;12.68;5.05;;;25.70;39.00;;;;;;20305;6866;330303;-73
2023/10/10 11:05:32;;;;;;;14.20;4.80;;;25.80;39.20;;;;;;20560;6866;117864;-74
2023/10/10 11:08:37;;;;;;;13.27;5.00;;;25.90;39.10;;;;;;20339;6866;278789;-73
2023/10/10 11:10:36;;;;;;;12.07;5.63;;;26.00;39.10;;;;;;20160;6853;278857;-74
2023/10/10 11:12:52;;;;;;;16.80;5.37;;;26.30;38.00;;;;;;20303;6857;279055;-74
2023/10/10 11:15:19;;;;;;;11.20;5.18;;;26.60;38.40;;;;;;20357;6857;315334;-73
2023/10/10 11:17:45;;;;;;;15.37;5.50;;;26.70;37.90;;;;;;20362;6857;315521;-73
2023/10/10 11:20:27;;;;;;;12.10;4.87;;;26.90;37.50;;;;;;20536;6866;117948;-74
2023/10/10 11:22:55;;;;;;;12.70;5.00;;;26.80;37.70;;;;;;20612;6852;117854;-75
2023/10/10 11:25:26;;;;;;;12.40;4.87;;;26.60;38.20;;;;;;20569;6854;117419;-75
2023/10/10 11:27:43;;;;;;;13.03;4.87;;;26.40;38.70;;;;;;20367;6854;308554;-75
2023/10/10 11:30:11;;;;;;;13.77;5.03;;;26.40;38.80;;;;;;20352;6865;323377;-74
2023/10/10 11:32:45;;;;;;;13.57;4.73;;;26.60;38.20;;;;;;20577;6865;121147;-75
2023/10/10 11:35:17;;;;;;;13.50;5.20;;;26.60;38.20;;;;;;20317;6865;307882;-75
2023/10/10 11:37:49;;;;;;;15.90;5.17;;;26.70;38.50;;;;;;20405;6853;298638;-74
2023/10/10 11:42:56;;;;;;;11.77;4.90;;;26.80;37.90;;;;;;20572;6865;117511;-74
2023/10/10 11:45:25;;;;;;;12.75;5.03;;;26.50;38.30;;;;;;20377;6854;312394;-74
2023/10/10 11:47:47;;;;;;;9.67;4.67;;;26.50;39.00;;;;;;20524;6865;119053;-74
2023/10/10 11:50:13;;;;;;;16.10;5.50;;;26.50;38.70;;;;;;20409;6853;278303;-73
2023/10/10 11:52:49;;;;;;;11.97;4.80;;;26.60;38.70;;;;;;20598;6857;117572;-74
2023/10/10 11:55:17;;;;;;;13.13;4.73;;;26.40;38.90;;;;;;20522;6857;121623;-74
2023/10/10 11:57:41;;;;;;;12.60;5.03;;;26.40;38.90;;;;;;20571;6865;118563;-74
2023/10/10 12:00:07;;;;;;;8.68;4.00;;;26.30;39.00;;;;;;20615;6853;118875;-74
2023/10/10 12:02:39;;;;;;;11.93;5.10;;;26.20;39.20;;;;;;20592;6857;117716;-73
2023/10/10 12:05:14;;;;;;;10.83;4.90;;;26.30;39.10;;;;;;20369;6857;313265;-76
2023/10/10 12:07:26;;;;;;;14.67;4.70;;;26.30;39.10;;;;;;20553;6851;118175;-76
2023/10/10 12:10:07;;;;;;;9.13;4.57;;;26.50;38.40;;;;;;20563;6866;117594;-75
2023/10/10 12:12:19;;;;;;;11.53;4.70;;;26.40;38.20;;;;;;20564;6853;117718;-74
2023/10/10 12:14:44;;;;;;;12.90;4.87;;;26.30;38.20;;;;;;20392;6857;308541;-74
2023/10/10 12:17:10;;;;;;;12.68;5.05;;;26.50;37.40;;;;;;20335;6866;338674;-76
2023/10/10 12:19:36;;;;;;;8.80;5.30;;;26.80;37.00;;;;;;20398;6854;307700;-77
2023/10/10 12:22:07;;;;;;;14.83;5.00;;;27.10;35.90;;;;;;20408;6854;308877;-74
2023/10/10 12:24:28;;;;;;;11.83;4.93;;;27.40;36.60;;;;;;20394;6854;308278;-75
2023/10/10 12:26:54;;;;;;;11.37;5.20;;;27.50;36.50;;;;;;20401;6854;294851;-74
2023/10/10 12:29:22;;;;;;;10.03;5.10;;;27.60;35.50;;;;;;20598;6854;118769;-74
2023/10/10 12:31:45;;;;;;;14.97;5.03;;;27.60;35.50;;;;;;20398;6854;308062;-74
2023/10/10 12:34:11;;;;;;;15.53;5.50;;;27.60;35.40;;;;;;20398;6852;308491;-75
2023/10/10 12:36:37;;;;;;;13.47;4.60;;;27.70;34.80;;;;;;20587;6865;119153;-75
2023/10/10 12:39:14;;;;;;;12.37;4.90;;;27.60;34.90;;;;;;20614;6854;117708;-75
2023/10/10 12:41:45;;;;;;;11.43;4.63;;;27.40;35.10;;;;;;20570;6854;124588;-75
2023/10/10 12:43:58;;;;;;;11.40;5.20;;;27.20;35.40;;;;;;20371;6850;307495;-76
2023/10/10 12:46:23;;;;;;;13.27;4.67;;;27.20;34.70;;;;;;20574;6865;121780;-76
2023/10/10 12:48:51;;;;;;;9.43;4.80;;;27.30;35.10;;;;;;20399;6853;299274;-75
2023/10/10 12:51:15;;;;;;;14.30;4.80;;;27.40;34.20;;;;;;20548;6853;118324;-75
2023/10/10 12:53:42;;;;;;;13.40;5.23;;;27.40;33.90;;;;;;20391;6857;307684;-76
2023/10/10 12:56:11;;;;;;;12.50;4.43;;;27.50;34.20;;;;;;20586;6857;117474;-76
2023/10/10 12:58:33;;;;;;;12.47;4.33;;;27.50;34.40;;;;;;20552;6865;117555;-76
2023/10/10 13:00:59;;;;;;;11.50;5.20;;;27.30;34.40;;;;;;20328;6866;314070;-76
2023/10/10 13:03:28;;;;;;;11.93;4.63;;;27.40;33.30;;;;;;20551;6865;122877;-76
2023/10/10 13:05:58;;;;;;;11.40;4.63;;;27.40;33.30;;;;;;20570;6865;117888;-76
2023/10/10 13:08:24;;;;;;;9.33;4.80;;;27.00;33.60;;;;;;20538;6865;120439;-76
2023/10/10 13:10:55;;;;;;;12.70;4.90;;;26.90;33.80;;;;;;20597;6854;117958;-76
2023/10/10 13:13:26;;;;;;;10.03;4.83;;;26.90;33.70;;;;;;20320;6854;309377;-76
2023/10/10 13:15:47;;;;;;;19.27;5.40;;;27.10;33.40;;;;;;20601;6854;117950;-76
2023/10/10 13:18:19;;;;;;;15.67;5.50;;;27.10;33.30;;;;;;20410;6851;307772;-76
2023/10/10 13:20:39;;;;;;;14.50;5.00;;;27.30;32.80;;;;;;20594;6851;118780;-76
2023/10/10 13:23:06;;;;;;;13.27;5.50;;;27.30;33.00;;;;;;20348;6866;294732;-77
2023/10/10 13:25:31;;;;;;;12.30;5.17;;;27.30;33.10;;;;;;20361;6866;308424;-76
2023/10/10 13:27:56;;;;;;;11.93;5.03;;;27.50;33.20;;;;;;20395;6854;316563;-77
2023/10/10 13:30:22;;;;;;;12.03;5.10;;;27.70;32.90;;;;;;20614;6854;117823;-77
2023/10/10 13:32:47;;;;;;;13.80;5.30;;;27.60;33.20;;;;;;20387;6854;308456;-78
2023/10/10 13:35:13;;;;;;;12.80;5.63;;;27.50;33.00;;;;;;20379;6854;301860;-76
2023/10/10 13:37:41;;;;;;;12.37;5.43;;;27.60;33.10;;;;;;20394;6854;317129;-76
2023/10/10 13:40:05;;;;;;;11.07;5.57;;;27.70;33.00;;;;;;20390;6854;308049;-76
2023/10/10 13:42:30;;;;;;;15.90;5.13;;;27.80;33.30;;;;;;20363;6866;315994;-76
2023/10/10 13:45:09;;;;;;;13.90;5.40;;;27.90;33.40;;;;;;20404;6853;279047;-76
2023/10/10 13:47:24;;;;;;;16.85;5.53;;;27.90;33.50;;;;;;20341;6854;337712;-78
2023/10/10 13:50:13;;;;;;;15.23;5.47;;;28.00;34.20;;;;;;20408;6850;279228;-77
2023/10/10 13:52:16;;;;;;;13.73;5.20;;;28.00;33.70;;;;;;20360;6850;346072;-76
2023/10/10 13:54:39;;;;;;;14.27;4.83;;;28.00;33.40;;;;;;20607;6850;122033;-76
2023/10/10 13:57:04;;;;;;;17.30;5.53;;;27.80;33.60;;;;;;20387;6850;336874;-76
2023/10/10 13:59:31;;;;;;;17.10;5.10;;;27.70;33.90;;;;;;20621;6850;117859;-76
2023/10/10 14:02:02;;;;;;;9.97;4.67;;;27.20;34.10;;;;;;20573;6865;118085;-76
2023/10/10 14:04:27;;;;;;;10.10;5.40;;;27.20;34.40;;;;;;20361;6854;308610;-76
2023/10/10 14:06:53;;;;;;;20.07;5.10;;;27.20;34.60;;;;;;20595;6854;117770;-76
2023/10/10 14:09:22;;;;;;;14.97;4.63;;;27.10;34.70;;;;;;20543;6865;117832;-76
2023/10/10 14:11:43;;;;;;;13.80;5.03;;;26.90;35.20;;;;;;20570;6865;118469;-76
2023/10/10 14:14:08;;;;;;;9.77;4.50;;;26.70;35.50;;;;;;20591;6854;117387;-75
2023/10/10 14:16:33;;;;;;;11.73;5.03;;;26.50;35.70;;;;;;20408;6854;346614;-76
2023/10/10 14:19:01;;;;;;;9.90;4.70;;;26.60;36.20;;;;;;20616;6854;117352;-76
2023/10/10 14:21:25;;;;;;;18.50;4.90;;;26.70;36.00;;;;;;20562;6865;118496;-77
2023/10/10 14:23:54;;;;;;;5.97;4.60;;;26.40;36.10;;;;;;20605;6854;118048;-77
2023/10/10 14:26:18;;;;;;;12.33;5.10;;;26.40;36.10;;;;;;20601;6854;117885;-76
2023/10/10 14:28:50;;;;;;;11.00;5.50;;;26.30;36.10;;;;;;20370;6866;293227;-76
2023/10/10 14:31:17;;;;;;;9.03;4.83;;;26.40;35.70;;;;;;20590;6854;121419;-75
2023/10/10 14:33:41;;;;;;;11.07;5.05;;;26.40;35.50;;;;;;20401;6854;307531;-76
2023/10/10 14:36:13;;;;;;;10.85;5.15;;;26.60;35.90;;;;;;20373;6866;278766;-76
2023/10/10 14:38:44;;;;;;;11.57;4.93;;;26.80;35.10;;;;;;20620;6853;117809;-76
2023/10/10 14:41:08;;;;;;;9.03;4.67;;;26.60;35.80;;;;;;20574;6857;145121;-74
2023/10/10 14:43:34;;;;;;;10.48;5.15;;;26.60;35.80;;;;;;20387;6857;337639;-77
2023/10/10 14:46:00;;;;;;;9.60;4.10;;;26.60;35.80;;;;;;20606;6857;117502;-75
2023/10/10 14:48:26;;;;;;;11.77;5.07;;;26.60;35.80;;;;;;20402;6851;279058;-77
2023/10/10 14:50:54;;;;;;;13.77;4.97;;;26.60;35.80;;;;;;20620;6851;117692;-76
2023/10/10 14:53:22;;;;;;;12.00;5.40;;;26.60;35.80;;;;;;20342;6866;298995;-76
2023/10/10 14:55:46;;;;;;;11.10;5.20;;;26.70;35.60;;;;;;20359;6864;338202;-75
2023/10/10 14:58:12;;;;;;;11.13;4.73;;;26.90;34.90;;;;;;20572;6865;124445;-76
2023/10/10 15:00:41;;;;;;;10.70;5.25;;;26.80;34.80;;;;;;20358;6865;280958;-76
2023/10/10 15:03:12;;;;;;;7.03;5.00;;;26.70;36.30;;;;;;20584;6854;117520;-75
2023/10/10 15:05:32;;;;;;;22.40;17.92;;;26.60;36.20;;;;;;20365;6854;338868;-76
2023/10/10 15:07:57;;;;;;;19.73;14.10;;;26.60;35.30;;;;;;20565;6865;117642;-76
2023/10/10 15:10:27;;;;;;;17.07;6.83;;;26.30;35.40;;;;;;20603;6854;122518;-75
2023/10/10 15:12:53;;;;;;;35.90;31.48;;;26.30;35.40;;;;;;20385;6854;307798;-76
2023/10/10 15:15:18;;;;;;;22.10;13.30;;;26.30;37.70;;;;;;20598;6854;119240;-76
2023/10/10 15:17:43;;;;;;;19.43;8.80;;;26.20;37.00;;;;;;20400;6854;312580;-75
2023/10/10 15:20:12;;;;;;;20.40;13.23;;;26.30;35.40;;;;;;20410;6851;311036;-75
2023/10/10 15:22:41;;;;;;;11.40;7.47;;;26.40;35.70;;;;;;20631;6851;117659;-76
2023/10/10 15:25:07;;;;;;;20.23;13.33;;;26.30;35.70;;;;;;20567;6865;118663;-76
2023/10/10 15:27:32;;;;;;;13.13;5.43;;;26.00;36.40;;;;;;20577;6868;118166;-76
2023/10/10 15:29:58;;;;;;;17.53;7.93;;;25.80;36.70;;;;;;20389;6857;286639;-76
2023/10/10 15:32:23;;;;;;;14.00;6.18;;;25.80;37.50;;;;;;20367;6865;338355;-81
2023/10/10 15:34:50;;;;;;;13.90;5.80;;;26.20;38.50;;;;;;20400;6853;277911;-74
2023/10/10 15:37:15;;;;;;;15.20;4.77;;;26.20;38.50;;;;;;20584;6857;118854;-74
2023/10/10 15:39:41;;;;;;;14.00;5.27;;;26.00;38.00;;;;;;20411;6851;283289;-74
2023/10/10 15:42:07;;;;;;;8.50;4.80;;;25.80;38.30;;;;;;20578;6866;121179;-76
2023/10/10 15:44:33;;;;;;;12.47;4.67;;;25.80;38.30;;;;;;20577;6866;121072;-73
2023/10/10 15:46:59;;;;;;;13.48;5.15;;;25.40;38.40;;;;;;20385;6854;344949;-76
2023/10/10 15:49:25;;;;;;;11.77;4.97;;;25.50;39.40;;;;;;20600;6854;120904;-73
2023/10/10 15:51:52;;;;;;;11.40;5.20;;;25.30;39.20;;;;;;20411;6854;285646;-75
2023/10/10 15:54:17;;;;;;;15.03;5.60;;;25.40;39.80;;;;;;20370;6866;279828;-76
2023/10/10 15:56:46;;;;;;;10.20;5.10;;;25.50;40.00;;;;;;20410;6854;321091;-77
2023/10/10 15:59:10;;;;;;;12.07;4.87;;;25.60;39.80;;;;;;20557;6866;118757;-75
2023/10/10 16:01:35;;;;;;;11.70;4.80;;;25.40;39.40;;;;;;20576;6866;117933;-75
2023/10/10 16:04:05;;;;;;;11.82;4.90;;;25.00;39.70;;;;;;20362;6866;313929;-75
2023/10/10 16:06:27;;;;;;;14.03;5.20;;;25.00;40.90;;;;;;20560;6866;120885;-75
2023/10/10 16:08:53;;;;;;;11.37;6.10;;;24.80;40.60;;;;;;20387;6852;308435;-73
2023/10/10 16:11:21;;;;;;;8.97;5.57;;;24.80;41.40;;;;;;20411;6854;118009;-73
2023/10/10 16:13:53;;;;;;;12.13;5.30;;;24.60;40.90;;;;;;20376;6854;346014;-74
2023/10/10 16:16:19;;;;;;;13.97;5.50;;;24.60;41.00;;;;;;20374;6854;312766;-76
2023/10/10 16:18:48;;;;;;;12.33;4.80;;;24.80;41.30;;;;;;20564;6865;123725;-77
2023/10/10 16:21:16;;;;;;;9.10;4.53;;;24.50;40.80;;;;;;20570;6854;117365;-74
2023/10/10 16:23:45;;;;;;;7.07;4.90;;;24.20;41.00;;;;;;20598;6854;117916;-75
2023/10/10 16:26:14;;;;;;;10.57;4.87;;;23.80;42.40;;;;;;20387;6854;307984;-75
2023/10/10 16:28:38;;;;;;;14.47;5.30;;;23.80;42.40;;;;;;20383;6854;308378;-76
2023/10/10 16:31:08;;;;;;;9.17;5.60;;;24.00;41.70;;;;;;20362;6854;307660;-77
2023/10/10 16:33:37;;;;;;;11.57;5.50;;;24.10;41.30;;;;;;20360;6854;308492;-76
2023/10/10 16:39:34;;;;;;;9.55;5.07;;;23.90;40.90;;;;;;20374;6647;336332;-94
2023/10/10 16:42:09;;;;;;;8.70;4.77;;;23.80;41.30;;;;;;20755;6819;117248;-95
2023/10/10 16:44:44;;;;;;;11.53;5.43;;;23.50;41.10;;;;;;20617;6743;276814;-74
2023/10/10 16:47:19;;;;;;;9.18;5.25;;;23.50;41.20;;;;;;20603;6761;305406;-74
2023/10/10 16:49:53;;;;;;;12.33;6.37;;;23.50;41.10;;;;;;20564;6754;311742;-74
2023/10/10 16:52:29;;;;;;;10.07;5.53;;;23.60;41.10;;;;;;20517;6769;278581;-74
2023/10/10 16:55:10;;;;;;;13.23;7.03;;;23.60;41.00;;;;;;20480;6737;324068;-75
2023/10/10 17:08:31;;;;;;;7.23;4.70;;;23.50;42.70;;;;;;21167;6530;90275;-73
2023/10/10 17:10:58;;;;;;;7.00;4.97;;;23.20;42.50;;;;;;20832;6802;117051;-73
2023/10/10 17:13:23;;;;;;;16.40;4.93;;;22.80;42.50;;;;;;20653;6802;117637;-72
2023/10/10 17:15:50;;;;;;;11.37;5.60;;;22.40;42.10;;;;;;20410;6872;311654;-72
2023/10/10 17:18:15;;;;;;;7.80;5.18;;;22.40;41.80;;;;;;20393;6872;313807;-73
2023/10/10 17:20:41;;;;;;;9.90;5.60;;;22.60;41.90;;;;;;20388;6872;308781;-72
2023/10/10 17:23:06;;;;;;;9.47;5.53;;;22.80;42.00;;;;;;20604;6872;117694;-72